^^
Station Historical Data
Daily Summary for December 03, 2019 Units:  Both    English   Metric
« Previous Day
Next Day »
Daily Weekly Monthly Yearly Custom
  High: Low: Average:
Temperature: 38.7 °F /  3.7 °C 25.9 °F /  -3.4 °C 32.2 °F /  0.1 °C
Dew Point: 31.4 °F /  -0.3 °C 22.6 °F /  -5.2 °C 27.3 °F /  -2.6 °C
Humidity: 90% 73% 82%
Wind Speed: 24mph /  38.6km/h - 8.2mph /  13.2km/h
Wind Gust: 28mph /  45.1km/h - -
Wind- - West
Pressure: 29.93 in /  1013.4 hPa 29.86 in /  1011.1 hPa -
Precipitation: 0.25 in /  6.35 mm    
Historical Graphs
 
 
Tabular Data for December 03, 2019
Time Temperature Dew Point Pressure Wind Wind Speed Wind Gust Humidity Rainfall Rate (Hourly) solar Conditions
00:00 32.5 °F /  0.3 °C 28.8 °F /  -1.8 °C 29.91in /  1012.8hPa WSW 8mph /  12.9km/h 10mph /  16.1km/h 86% 0in /  0mm 0.00 W/m2
00:05 32.4 °F /  0.2 °C 28.7 °F /  -1.8 °C 29.91in /  1012.8hPa WSW 7mph /  11.3km/h 9mph /  14.5km/h 86% 0in /  0mm 0.00 W/m2
00:10 32 °F /  0 °C 28.3 °F /  -2.1 °C 29.91in /  1012.8hPa WSW 9mph /  14.5km/h 9mph /  14.5km/h 86% 0in /  0mm 0.00 W/m2
00:15 31.4 °F /  -0.3 °C 27.7 °F /  -2.4 °C 29.91in /  1012.8hPa WSW 8mph /  12.9km/h 9mph /  14.5km/h 86% 0in /  0mm 0.00 W/m2
00:20 31 °F /  -0.6 °C 27.3 °F /  -2.6 °C 29.91in /  1012.8hPa WSW 8mph /  12.9km/h 11mph /  17.7km/h 86% 0in /  0mm 0.00 W/m2
00:25 30.8 °F /  -0.7 °C 27.1 °F /  -2.7 °C 29.91in /  1012.8hPa WSW 9mph /  14.5km/h 11mph /  17.7km/h 86% 0in /  0mm 0.00 W/m2
00:30 30.6 °F /  -0.8 °C 27.2 °F /  -2.7 °C 29.91in /  1012.8hPa WSW 8mph /  12.9km/h 11mph /  17.7km/h 87% 0in /  0mm 0.00 W/m2
00:35 31 °F /  -0.6 °C 27.6 °F /  -2.4 °C 29.90in /  1012.4hPa WSW 11mph /  17.7km/h 11mph /  17.7km/h 87% 0in /  0mm 0.00 W/m2
00:40 31.5 °F /  -0.3 °C 27.8 °F /  -2.3 °C 29.90in /  1012.4hPa WSW 8mph /  12.9km/h 12mph /  19.3km/h 86% 0in /  0mm 0.00 W/m2
00:45 31.1 °F /  -0.5 °C 27.4 °F /  -2.6 °C 29.90in /  1012.4hPa WSW 9mph /  14.5km/h 12mph /  19.3km/h 86% 0in /  0mm 0.00 W/m2
00:50 31.5 °F /  -0.3 °C 27.8 °F /  -2.3 °C 29.90in /  1012.4hPa WSW 12mph /  19.3km/h 12mph /  19.3km/h 86% 0in /  0mm 0.00 W/m2
00:55 32.5 °F /  0.3 °C 28.5 °F /  -1.9 °C 29.90in /  1012.4hPa WSW 12mph /  19.3km/h 13mph /  20.9km/h 85% 0in /  0mm 0.00 W/m2
01:00 32.6 °F /  0.3 °C 28.6 °F /  -1.9 °C 29.89in /  1012.1hPa West 10mph /  16.1km/h 13mph /  20.9km/h 85% 0in /  0mm 0.00 W/m2
01:05 32.6 °F /  0.3 °C 28.6 °F /  -1.9 °C 29.89in /  1012.1hPa West 9mph /  14.5km/h 13mph /  20.9km/h 85% 0in /  0mm 0.00 W/m2
01:10 33.1 °F /  0.6 °C 28.8 °F /  -1.8 °C 29.89in /  1012.1hPa WSW 8mph /  12.9km/h 14mph /  22.5km/h 84% 0in /  0mm 0.00 W/m2
01:15 33.3 °F /  0.7 °C 29 °F /  -1.7 °C 29.89in /  1012.1hPa WSW 11mph /  17.7km/h 14mph /  22.5km/h 84% 0in /  0mm 0.00 W/m2
01:20 33.2 °F /  0.7 °C 28.9 °F /  -1.7 °C 29.89in /  1012.1hPa WSW 9mph /  14.5km/h 14mph /  22.5km/h 84% 0in /  0mm 0.00 W/m2
01:25 32.8 °F /  0.4 °C 28.5 °F /  -1.9 °C 29.89in /  1012.1hPa WSW 10mph /  16.1km/h 14mph /  22.5km/h 84% 0in /  0mm 0.00 W/m2
01:30 32.5 °F /  0.3 °C 28.2 °F /  -2.1 °C 29.89in /  1012.1hPa West 9mph /  14.5km/h 14mph /  22.5km/h 84% 0in /  0mm 0.00 W/m2
01:35 32.3 °F /  0.2 °C 28 °F /  -2.2 °C 29.89in /  1012.1hPa West 9mph /  14.5km/h 14mph /  22.5km/h 84% 0in /  0mm 0.00 W/m2
01:40 31.8 °F /  -0.1 °C 27.8 °F /  -2.3 °C 29.89in /  1012.1hPa West 7mph /  11.3km/h 11mph /  17.7km/h 85% 0in /  0mm 0.00 W/m2
01:45 31.2 °F /  -0.4 °C 27.2 °F /  -2.7 °C 29.89in /  1012.1hPa WNW 7mph /  11.3km/h 10mph /  16.1km/h 85% 0in /  0mm 0.00 W/m2
01:50 30.9 °F /  -0.6 °C 26.9 °F /  -2.8 °C 29.89in /  1012.1hPa West 8mph /  12.9km/h 10mph /  16.1km/h 85% 0in /  0mm 0.00 W/m2
01:55 30.7 °F /  -0.7 °C 27 °F /  -2.8 °C 29.89in /  1012.1hPa WNW 6mph /  9.7km/h 10mph /  16.1km/h 86% 0in /  0mm 0.00 W/m2
02:00 30.6 °F /  -0.8 °C 26.9 °F /  -2.8 °C 29.89in /  1012.1hPa West 9mph /  14.5km/h 10mph /  16.1km/h 86% 0in /  0mm 0.00 W/m2
02:05 30.4 °F /  -0.9 °C 26.7 °F /  -2.9 °C 29.88in /  1011.7hPa West 4mph /  6.4km/h 9mph /  14.5km/h 86% 0in /  0mm 0.00 W/m2
02:10 30.1 °F /  -1.1 °C 26.7 °F /  -2.9 °C 29.88in /  1011.7hPa Calm   8mph /  12.9km/h 87% 0in /  0mm 0.00 W/m2
02:15 29.9 °F /  -1.2 °C 26.5 °F /  -3.1 °C 29.89in /  1012.1hPa West 1mph /  1.6km/h 7mph /  11.3km/h 87% 0in /  0mm 0.00 W/m2
02:20 29.6 °F /  -1.3 °C 26.5 °F /  -3.1 °C 29.89in /  1012.1hPa West 3mph /  4.8km/h 7mph /  11.3km/h 88% 0in /  0mm 0.00 W/m2
02:25 29.3 °F /  -1.5 °C 26.2 °F /  -3.2 °C 29.89in /  1012.1hPa West 2mph /  3.2km/h 3mph /  4.8km/h 88% 0in /  0mm 0.00 W/m2
02:30 29.2 °F /  -1.6 °C 26.4 °F /  -3.1 °C 29.89in /  1012.1hPa WSW 3mph /  4.8km/h 3mph /  4.8km/h 89% 0in /  0mm 0.00 W/m2
02:35 29.3 °F /  -1.5 °C 26.5 °F /  -3.1 °C 29.89in /  1012.1hPa SW 4mph /  6.4km/h 5mph /  8km/h 89% 0in /  0mm 0.00 W/m2
02:40 29.5 °F /  -1.4 °C 26.4 °F /  -3.1 °C 29.89in /  1012.1hPa WSW 4mph /  6.4km/h 8mph /  12.9km/h 88% 0in /  0mm 0.00 W/m2
02:45 29.4 °F /  -1.4 °C 26.3 °F /  -3.2 °C 29.89in /  1012.1hPa WSW 3mph /  4.8km/h 8mph /  12.9km/h 88% 0in /  0mm 0.00 W/m2
02:50 29.3 °F /  -1.5 °C 26.2 °F /  -3.2 °C 29.89in /  1012.1hPa WSW 2mph /  3.2km/h 8mph /  12.9km/h 88% 0in /  0mm 0.00 W/m2
02:55 29.2 °F /  -1.6 °C 26.1 °F /  -3.3 °C 29.89in /  1012.1hPa West 3mph /  4.8km/h 8mph /  12.9km/h 88% 0in /  0mm 0.00 W/m2
03:00 28.9 °F /  -1.7 °C 25.8 °F /  -3.4 °C 29.89in /  1012.1hPa WSW 3mph /  4.8km/h 6mph /  9.7km/h 88% 0in /  0mm 0.00 W/m2
03:05 29 °F /  -1.7 °C 25.9 °F /  -3.4 °C 29.89in /  1012.1hPa WNW 7mph /  11.3km/h 9mph /  14.5km/h 88% 0in /  0mm 0.00 W/m2
03:10 29.3 °F /  -1.5 °C 25.9 °F /  -3.4 °C 29.89in /  1012.1hPa WNW 4mph /  6.4km/h 9mph /  14.5km/h 87% 0in /  0mm 0.00 W/m2
03:15 29.2 °F /  -1.6 °C 25.8 °F /  -3.4 °C 29.89in /  1012.1hPa West 1mph /  1.6km/h 9mph /  14.5km/h 87% 0in /  0mm 0.00 W/m2
03:20 29.2 °F /  -1.6 °C 25.8 °F /  -3.4 °C 29.89in /  1012.1hPa WSW 5mph /  8km/h 9mph /  14.5km/h 87% 0in /  0mm 0.00 W/m2
03:25 29.3 °F /  -1.5 °C 25.9 °F /  -3.4 °C 29.89in /  1012.1hPa West 3mph /  4.8km/h 7mph /  11.3km/h 87% 0in /  0mm 0.00 W/m2
03:30 29.2 °F /  -1.6 °C 25.8 °F /  -3.4 °C 29.88in /  1011.7hPa Calm   7mph /  11.3km/h 87% 0in /  0mm 0.00 W/m2
03:35 29.2 °F /  -1.6 °C 26.1 °F /  -3.3 °C 29.89in /  1012.1hPa WSW 1mph /  1.6km/h 7mph /  11.3km/h 88% 0in /  0mm 0.00 W/m2
03:40 28.9 °F /  -1.7 °C 25.5 °F /  -3.6 °C 29.89in /  1012.1hPa Calm   7mph /  11.3km/h 87% 0in /  0mm 0.00 W/m2
03:45 28.9 °F /  -1.7 °C 25.8 °F /  -3.4 °C 29.89in /  1012.1hPa WSW 2mph /  3.2km/h 4mph /  6.4km/h 88% 0in /  0mm 0.00 W/m2
03:50 28.7 °F /  -1.8 °C 25.6 °F /  -3.6 °C 29.89in /  1012.1hPa WSW 3mph /  4.8km/h 4mph /  6.4km/h 88% 0in /  0mm 0.00 W/m2
03:55 28.7 °F /  -1.8 °C 25.6 °F /  -3.6 °C 29.89in /  1012.1hPa West 4mph /  6.4km/h 7mph /  11.3km/h 88% 0in /  0mm 0.00 W/m2
04:00 28.6 °F /  -1.9 °C 25.5 °F /  -3.6 °C 29.89in /  1012.1hPa West 4mph /  6.4km/h 7mph /  11.3km/h 88% 0in /  0mm 0.00 W/m2
04:05 28.5 °F /  -1.9 °C 25.1 °F /  -3.8 °C 29.89in /  1012.1hPa WNW 4mph /  6.4km/h 7mph /  11.3km/h 87% 0in /  0mm 0.00 W/m2
04:10 28.6 °F /  -1.9 °C 25.5 °F /  -3.6 °C 29.88in /  1011.7hPa WNW 3mph /  4.8km/h 7mph /  11.3km/h 88% 0in /  0mm 0.00 W/m2
04:15 28.5 °F /  -1.9 °C 25.4 °F /  -3.7 °C 29.88in /  1011.7hPa WNW 2mph /  3.2km/h 5mph /  8km/h 88% 0in /  0mm 0.00 W/m2
04:20 28.3 °F /  -2.1 °C 25.2 °F /  -3.8 °C 29.88in /  1011.7hPa WNW 2mph /  3.2km/h 5mph /  8km/h 88% 0in /  0mm 0.00 W/m2
04:25 28.1 °F /  -2.2 °C 25 °F /  -3.9 °C 29.88in /  1011.7hPa WNW 4mph /  6.4km/h 9mph /  14.5km/h 88% 0in /  0mm 0.00 W/m2
04:30 27.9 °F /  -2.3 °C 24.5 °F /  -4.2 °C 29.88in /  1011.7hPa WNW 4mph /  6.4km/h 9mph /  14.5km/h 87% 0in /  0mm 0.00 W/m2
04:35 27.4 °F /  -2.6 °C 24 °F /  -4.4 °C 29.88in /  1011.7hPa West 1mph /  1.6km/h 9mph /  14.5km/h 87% 0in /  0mm 0.00 W/m2
04:40 27 °F /  -2.8 °C 23.9 °F /  -4.5 °C 29.88in /  1011.7hPa West 2mph /  3.2km/h 9mph /  14.5km/h 88% 0in /  0mm 0.00 W/m2
04:45 26.7 °F /  -2.9 °C 23.6 °F /  -4.7 °C 29.88in /  1011.7hPa West 3mph /  4.8km/h 4mph /  6.4km/h 88% 0in /  0mm 0.00 W/m2
04:50 26.5 °F /  -3.1 °C 23.4 °F /  -4.8 °C 29.87in /  1011.4hPa WSW 4mph /  6.4km/h 7mph /  11.3km/h 88% 0in /  0mm 0.00 W/m2
04:55 26.3 °F /  -3.2 °C 23.5 °F /  -4.7 °C 29.88in /  1011.7hPa WSW 3mph /  4.8km/h 7mph /  11.3km/h 89% 0in /  0mm 0.00 W/m2
05:00 26.1 °F /  -3.3 °C 23 °F /  -5 °C 29.88in /  1011.7hPa SW 2mph /  3.2km/h 6mph /  9.7km/h 88% 0in /  0mm 0.00 W/m2
05:05 25.9 °F /  -3.4 °C 23.1 °F /  -4.9 °C 29.88in /  1011.7hPa WNW 3mph /  4.8km/h 6mph /  9.7km/h 89% 0in /  0mm 0.00 W/m2
05:10 25.9 °F /  -3.4 °C 23.1 °F /  -4.9 °C 29.88in /  1011.7hPa WNW 2mph /  3.2km/h 4mph /  6.4km/h 89% 0in /  0mm 0.00 W/m2
05:15 25.9 °F /  -3.4 °C 23.1 °F /  -4.9 °C 29.88in /  1011.7hPa WSW 2mph /  3.2km/h 4mph /  6.4km/h 89% 0in /  0mm 0.00 W/m2
05:20 25.9 °F /  -3.4 °C 23.1 °F /  -4.9 °C 29.88in /  1011.7hPa West 3mph /  4.8km/h 8mph /  12.9km/h 89% 0in /  0mm 0.00 W/m2
05:25 26 °F /  -3.3 °C 23.2 °F /  -4.9 °C 29.89in /  1012.1hPa NNW 3mph /  4.8km/h 8mph /  12.9km/h 89% 0in /  0mm 0.00 W/m2
05:30 25.9 °F /  -3.4 °C 23.4 °F /  -4.8 °C 29.89in /  1012.1hPa NNW 3mph /  4.8km/h 8mph /  12.9km/h 90% 0in /  0mm 0.00 W/m2
05:35 26.6 °F /  -3 °C 24.1 °F /  -4.4 °C 29.89in /  1012.1hPa NW 4mph /  6.4km/h 10mph /  16.1km/h 90% 0in /  0mm 0.00 W/m2
05:40 27.4 °F /  -2.6 °C 24.6 °F /  -4.1 °C 29.89in /  1012.1hPa NW 5mph /  8km/h 10mph /  16.1km/h 89% 0in /  0mm 0.00 W/m2
05:45 27.9 °F /  -2.3 °C 24.8 °F /  -4 °C 29.89in /  1012.1hPa WNW 11mph /  17.7km/h 11mph /  17.7km/h 88% 0in /  0mm 0.00 W/m2
05:50 28.5 °F /  -1.9 °C 25.1 °F /  -3.8 °C 29.89in /  1012.1hPa West 9mph /  14.5km/h 14mph /  22.5km/h 87% 0in /  0mm 0.00 W/m2
05:55 28.6 °F /  -1.9 °C 24.9 °F /  -3.9 °C 29.89in /  1012.1hPa WNW 10mph /  16.1km/h 14mph /  22.5km/h 86% 0in /  0mm 0.00 W/m2
06:00 28.3 °F /  -2.1 °C 24.6 °F /  -4.1 °C 29.89in /  1012.1hPa West 7mph /  11.3km/h 14mph /  22.5km/h 86% 0in /  0mm 0.00 W/m2
06:05 27.9 °F /  -2.3 °C 24.3 °F /  -4.3 °C 29.89in /  1012.1hPa WNW 4mph /  6.4km/h 14mph /  22.5km/h 86% 0in /  0mm 0.00 W/m2
06:10 27.8 °F /  -2.3 °C 24.4 °F /  -4.2 °C 29.89in /  1012.1hPa WNW 5mph /  8km/h 14mph /  22.5km/h 87% 0in /  0mm 0.00 W/m2
06:15 27.8 °F /  -2.3 °C 24.4 °F /  -4.2 °C 29.89in /  1012.1hPa WNW 4mph /  6.4km/h 8mph /  12.9km/h 87% 0in /  0mm 0.00 W/m2
06:20 27.9 °F /  -2.3 °C 24.5 °F /  -4.2 °C 29.89in /  1012.1hPa NW 7mph /  11.3km/h 8mph /  12.9km/h 87% 0in /  0mm 0.00 W/m2
06:25 28.1 °F /  -2.2 °C 24.7 °F /  -4.1 °C 29.89in /  1012.1hPa West 6mph /  9.7km/h 9mph /  14.5km/h 87% 0in /  0mm 0.00 W/m2
06:30 28.1 °F /  -2.2 °C 24.5 °F /  -4.2 °C 29.89in /  1012.1hPa West 8mph /  12.9km/h 9mph /  14.5km/h 86% 0in /  0mm 0.00 W/m2
06:35 27.7 °F /  -2.4 °C 24.1 °F /  -4.4 °C 29.89in /  1012.1hPa WNW 8mph /  12.9km/h 10mph /  16.1km/h 86% 0in /  0mm 0.00 W/m2
06:40 27.4 °F /  -2.6 °C 23.8 °F /  -4.6 °C 29.89in /  1012.1hPa West 6mph /  9.7km/h 10mph /  16.1km/h 86% 0in /  0mm 0.00 W/m2
06:45 27.1 °F /  -2.7 °C 23.5 °F /  -4.7 °C 29.89in /  1012.1hPa West 7mph /  11.3km/h 10mph /  16.1km/h 86% 0in /  0mm 0.00 W/m2
06:50 27.1 °F /  -2.7 °C 23.7 °F /  -4.6 °C 29.89in /  1012.1hPa West 9mph /  14.5km/h 11mph /  17.7km/h 87% 0in /  0mm 0.00 W/m2
06:55 26.8 °F /  -2.9 °C 23.2 °F /  -4.9 °C 29.88in /  1011.7hPa West 4mph /  6.4km/h 11mph /  17.7km/h 86% 0in /  0mm 0.00 W/m2
07:00 26.5 °F /  -3.1 °C 23.2 °F /  -4.9 °C 29.89in /  1012.1hPa WNW 5mph /  8km/h 11mph /  17.7km/h 87% 0in /  0mm 0.00 W/m2
07:05 26.4 °F /  -3.1 °C 23.1 °F /  -4.9 °C 29.88in /  1011.7hPa WNW 4mph /  6.4km/h 11mph /  17.7km/h 87% 0in /  0mm 0.00 W/m2
07:10 26.6 °F /  -3 °C 23.5 °F /  -4.7 °C 29.88in /  1011.7hPa WNW 6mph /  9.7km/h 11mph /  17.7km/h 88% 0in /  0mm 0.00 W/m2
07:15 27 °F /  -2.8 °C 23.6 °F /  -4.7 °C 29.88in /  1011.7hPa WNW 7mph /  11.3km/h 11mph /  17.7km/h 87% 0in /  0mm 0.00 W/m2
07:20 27.3 °F /  -2.6 °C 23.9 °F /  -4.5 °C 29.88in /  1011.7hPa West 8mph /  12.9km/h 11mph /  17.7km/h 87% 0in /  0mm 0.00 W/m2
07:25 27.3 °F /  -2.6 °C 23.7 °F /  -4.6 °C 29.89in /  1012.1hPa WNW 9mph /  14.5km/h 11mph /  17.7km/h 86% 0in /  0mm 0.00 W/m2
07:30 27.2 °F /  -2.7 °C 23.6 °F /  -4.7 °C 29.88in /  1011.7hPa WNW 6mph /  9.7km/h 11mph /  17.7km/h 86% 0in /  0mm 0.00 W/m2
07:35 26.7 °F /  -2.9 °C 23.1 °F /  -4.9 °C 29.88in /  1011.7hPa West 6mph /  9.7km/h 11mph /  17.7km/h 86% 0in /  0mm 0.00 W/m2
07:40 26.7 °F /  -2.9 °C 23.4 °F /  -4.8 °C 29.88in /  1011.7hPa WNW 5mph /  8km/h 11mph /  17.7km/h 87% 0in /  0mm 0.00 W/m2
07:45 27 °F /  -2.8 °C 23.6 °F /  -4.7 °C 29.88in /  1011.7hPa WNW 7mph /  11.3km/h 8mph /  12.9km/h 87% 0in /  0mm 0.00 W/m2
07:50 27.2 °F /  -2.7 °C 23.6 °F /  -4.7 °C 29.89in /  1012.1hPa WNW 7mph /  11.3km/h 9mph /  14.5km/h 86% 0in /  0mm 0.00 W/m2
07:55 27.2 °F /  -2.7 °C 23.6 °F /  -4.7 °C 29.89in /  1012.1hPa NW 4mph /  6.4km/h 9mph /  14.5km/h 86% 0in /  0mm 0.00 W/m2
08:00 27 °F /  -2.8 °C 23.1 °F /  -4.9 °C 29.89in /  1012.1hPa WNW 7mph /  11.3km/h 9mph /  14.5km/h 85% 0in /  0mm 0.00 W/m2
08:05 26.9 °F /  -2.8 °C 23 °F /  -5 °C 29.89in /  1012.1hPa WNW 7mph /  11.3km/h 10mph /  16.1km/h 85% 0in /  0mm 5.00 W/m2
08:10 26.7 °F /  -2.9 °C 23.1 °F /  -4.9 °C 29.89in /  1012.1hPa WNW 5mph /  8km/h 10mph /  16.1km/h 86% 0in /  0mm 7.00 W/m2
08:15 26.6 °F /  -3 °C 23 °F /  -5 °C 29.89in /  1012.1hPa WNW 9mph /  14.5km/h 10mph /  16.1km/h 86% 0in /  0mm 7.00 W/m2
08:20 26.9 °F /  -2.8 °C 23.3 °F /  -4.8 °C 29.89in /  1012.1hPa WNW 5mph /  8km/h 10mph /  16.1km/h 86% 0in /  0mm 9.00 W/m2
08:25 27 °F /  -2.8 °C 23.1 °F /  -4.9 °C 29.89in /  1012.1hPa WNW 6mph /  9.7km/h 10mph /  16.1km/h 85% 0in /  0mm 12.00 W/m2
08:30 27.1 °F /  -2.7 °C 23.2 °F /  -4.9 °C 29.89in /  1012.1hPa WNW 5mph /  8km/h 10mph /  16.1km/h 85% 0in /  0mm 14.00 W/m2
08:35 26.8 °F /  -2.9 °C 22.6 °F /  -5.2 °C 29.90in /  1012.4hPa NW 5mph /  8km/h 10mph /  16.1km/h 84% 0in /  0mm 26.00 W/m2
08:40 26.4 °F /  -3.1 °C 22.8 °F /  -5.1 °C 29.90in /  1012.4hPa NW 6mph /  9.7km/h 9mph /  14.5km/h 86% 0in /  0mm 26.00 W/m2
08:45 26.8 °F /  -2.9 °C 23.2 °F /  -4.9 °C 29.90in /  1012.4hPa WNW 7mph /  11.3km/h 10mph /  16.1km/h 86% 0in /  0mm 46.00 W/m2
08:50 27.1 °F /  -2.7 °C 23.2 °F /  -4.9 °C 29.90in /  1012.4hPa West 6mph /  9.7km/h 10mph /  16.1km/h 85% 0in /  0mm 60.00 W/m2
08:55 27.1 °F /  -2.7 °C 23.2 °F /  -4.9 °C 29.90in /  1012.4hPa West 8mph /  12.9km/h 10mph /  16.1km/h 85% 0in /  0mm 53.00 W/m2
09:00 27.1 °F /  -2.7 °C 23.2 °F /  -4.9 °C 29.90in /  1012.4hPa West 4mph /  6.4km/h 9mph /  14.5km/h 85% 0in /  0mm 54.00 W/m2
09:05 27.4 °F /  -2.6 °C 23.5 °F /  -4.7 °C 29.90in /  1012.4hPa WNW 8mph /  12.9km/h 11mph /  17.7km/h 85% 0in /  0mm 58.00 W/m2
09:10 27.8 °F /  -2.3 °C 23.9 °F /  -4.5 °C 29.90in /  1012.4hPa NW 9mph /  14.5km/h 12mph /  19.3km/h 85% 0in /  0mm 69.00 W/m2
09:15 27.9 °F /  -2.3 °C 24 °F /  -4.4 °C 29.90in /  1012.4hPa WNW 7mph /  11.3km/h 12mph /  19.3km/h 85% 0in /  0mm 77.00 W/m2
09:20 27.8 °F /  -2.3 °C 23.6 °F /  -4.7 °C 29.90in /  1012.4hPa WNW 3mph /  4.8km/h 10mph /  16.1km/h 84% 0in /  0mm 93.00 W/m2
09:25 27.6 °F /  -2.4 °C 23.4 °F /  -4.8 °C 29.90in /  1012.4hPa WNW 7mph /  11.3km/h 10mph /  16.1km/h 84% 0in /  0mm 116.00 W/m2
09:30 27.6 °F /  -2.4 °C 23.4 °F /  -4.8 °C 29.90in /  1012.4hPa WNW 4mph /  6.4km/h 9mph /  14.5km/h 84% 0in /  0mm 134.00 W/m2
09:35 27.5 °F /  -2.5 °C 23.3 °F /  -4.8 °C 29.90in /  1012.4hPa WNW 4mph /  6.4km/h 8mph /  12.9km/h 84% 0in /  0mm 146.00 W/m2
09:40 27.5 °F /  -2.5 °C 23.6 °F /  -4.7 °C 29.90in /  1012.4hPa West 6mph /  9.7km/h 8mph /  12.9km/h 85% 0in /  0mm 148.00 W/m2
09:45 27.6 °F /  -2.4 °C 23.7 °F /  -4.6 °C 29.90in /  1012.4hPa West 3mph /  4.8km/h 8mph /  12.9km/h 85% 0in /  0mm 165.00 W/m2
09:50 28 °F /  -2.2 °C 24.1 °F /  -4.4 °C 29.90in /  1012.4hPa NW 4mph /  6.4km/h 6mph /  9.7km/h 85% 0in /  0mm 139.00 W/m2
09:55 28.4 °F /  -2 °C 24.2 °F /  -4.3 °C 29.90in /  1012.4hPa WNW 4mph /  6.4km/h 8mph /  12.9km/h 84% 0in /  0mm 155.00 W/m2
10:00 28.6 °F /  -1.9 °C 24.4 °F /  -4.2 °C 29.90in /  1012.4hPa NW 4mph /  6.4km/h 8mph /  12.9km/h 84% 0in /  0mm 216.00 W/m2
10:05 29 °F /  -1.7 °C 24.5 °F /  -4.2 °C 29.90in /  1012.4hPa WNW 5mph /  8km/h 9mph /  14.5km/h 83% 0in /  0mm 153.00 W/m2
10:10 28.9 °F /  -1.7 °C 24.4 °F /  -4.2 °C 29.90in /  1012.4hPa WNW 4mph /  6.4km/h 9mph /  14.5km/h 83% 0in /  0mm 63.00 W/m2
10:15 28.8 °F /  -1.8 °C 24.3 °F /  -4.3 °C 29.90in /  1012.4hPa WNW 5mph /  8km/h 9mph /  14.5km/h 83% 0in /  0mm 220.00 W/m2
10:20 29.1 °F /  -1.6 °C 24.6 °F /  -4.1 °C 29.90in /  1012.4hPa WNW 4mph /  6.4km/h 9mph /  14.5km/h 83% 0in /  0mm 165.00 W/m2
10:25 29.3 °F /  -1.5 °C 24.8 °F /  -4 °C 29.90in /  1012.4hPa WNW 4mph /  6.4km/h 9mph /  14.5km/h 83% 0in /  0mm 223.00 W/m2
10:30 29.7 °F /  -1.3 °C 25.2 °F /  -3.8 °C 29.90in /  1012.4hPa NW 4mph /  6.4km/h 9mph /  14.5km/h 83% 0in /  0mm 227.00 W/m2
10:35 30.1 °F /  -1.1 °C 25.3 °F /  -3.7 °C 29.90in /  1012.4hPa WNW 4mph /  6.4km/h 9mph /  14.5km/h 82% 0in /  0mm 232.00 W/m2
10:40 30.4 °F /  -0.9 °C 25.6 °F /  -3.6 °C 29.90in /  1012.4hPa West 9mph /  14.5km/h 12mph /  19.3km/h 82% 0in /  0mm 241.00 W/m2
10:45 30.6 °F /  -0.8 °C 25.8 °F /  -3.4 °C 29.89in /  1012.1hPa West 12mph /  19.3km/h 13mph /  20.9km/h 82% 0in /  0mm 250.00 W/m2
10:50 31.3 °F /  -0.4 °C 26.4 °F /  -3.1 °C 29.90in /  1012.4hPa West 10mph /  16.1km/h 16mph /  25.7km/h 82% 0in /  0mm 255.00 W/m2
10:55 31.5 °F /  -0.3 °C 26.3 °F /  -3.2 °C 29.90in /  1012.4hPa West 13mph /  20.9km/h 16mph /  25.7km/h 81% 0in /  0mm 260.00 W/m2
11:00 31.8 °F /  -0.1 °C 26.6 °F /  -3 °C 29.90in /  1012.4hPa WSW 9mph /  14.5km/h 16mph /  25.7km/h 81% 0in /  0mm 265.00 W/m2
11:05 32.2 °F /  0.1 °C 26.7 °F /  -2.9 °C 29.90in /  1012.4hPa West 11mph /  17.7km/h 16mph /  25.7km/h 80% 0in /  0mm 272.00 W/m2
11:10 32.5 °F /  0.3 °C 27 °F /  -2.8 °C 29.90in /  1012.4hPa West 12mph /  19.3km/h 16mph /  25.7km/h 80% 0in /  0mm 279.00 W/m2
11:15 32.7 °F /  0.4 °C 27.2 °F /  -2.7 °C 29.89in /  1012.1hPa WSW 8mph /  12.9km/h 16mph /  25.7km/h 80% 0in /  0mm 283.00 W/m2
11:20 32.8 °F /  0.4 °C 27 °F /  -2.8 °C 29.89in /  1012.1hPa WSW 5mph /  8km/h 16mph /  25.7km/h 79% 0in /  0mm 278.00 W/m2
11:25 33 °F /  0.6 °C 27.2 °F /  -2.7 °C 29.89in /  1012.1hPa West 4mph /  6.4km/h 12mph /  19.3km/h 79% 0in /  0mm 292.00 W/m2
11:30 33.1 °F /  0.6 °C 27.3 °F /  -2.6 °C 29.89in /  1012.1hPa West 6mph /  9.7km/h 12mph /  19.3km/h 79% 0in /  0mm 297.00 W/m2
11:35 33.3 °F /  0.7 °C 27.5 °F /  -2.5 °C 29.89in /  1012.1hPa West 10mph /  16.1km/h 13mph /  20.9km/h 79% 0in /  0mm 308.00 W/m2
11:40 33.4 °F /  0.8 °C 27.6 °F /  -2.4 °C 29.89in /  1012.1hPa West 9mph /  14.5km/h 13mph /  20.9km/h 79% 0in /  0mm 323.00 W/m2
11:45 33.6 °F /  0.9 °C 27.8 °F /  -2.3 °C 29.89in /  1012.1hPa West 12mph /  19.3km/h 13mph /  20.9km/h 79% 0in /  0mm 339.00 W/m2
11:50 33.7 °F /  0.9 °C 28.2 °F /  -2.1 °C 29.89in /  1012.1hPa West 9mph /  14.5km/h 13mph /  20.9km/h 80% 0in /  0mm 367.00 W/m2
11:55 33.7 °F /  0.9 °C 27.9 °F /  -2.3 °C 29.89in /  1012.1hPa West 9mph /  14.5km/h 16mph /  25.7km/h 79% 0in /  0mm 271.00 W/m2
12:00 33.9 °F /  1.1 °C 28.1 °F /  -2.2 °C 29.89in /  1012.1hPa West 11mph /  17.7km/h 18mph /  29km/h 79% 0in /  0mm 360.00 W/m2
12:05 34 °F /  1.1 °C 28.5 °F /  -1.9 °C 29.89in /  1012.1hPa West 12mph /  19.3km/h 19mph /  30.6km/h 80% 0in /  0mm 360.00 W/m2
12:10 34.2 °F /  1.2 °C 28.4 °F /  -2 °C 29.89in /  1012.1hPa West 13mph /  20.9km/h 19mph /  30.6km/h 79% 0in /  0mm 366.00 W/m2
12:15 34.3 °F /  1.3 °C 28.8 °F /  -1.8 °C 29.89in /  1012.1hPa West 11mph /  17.7km/h 19mph /  30.6km/h 80% 0in /  0mm 364.00 W/m2
12:20 34.5 °F /  1.4 °C 28.7 °F /  -1.8 °C 29.88in /  1011.7hPa West 12mph /  19.3km/h 19mph /  30.6km/h 79% 0in /  0mm 367.00 W/m2
12:25 34.7 °F /  1.5 °C 28.9 °F /  -1.7 °C 29.88in /  1011.7hPa WNW 14mph /  22.5km/h 21mph /  33.8km/h 79% 0in /  0mm 371.00 W/m2
12:30 35 °F /  1.7 °C 29.1 °F /  -1.6 °C 29.88in /  1011.7hPa West 14mph /  22.5km/h 21mph /  33.8km/h 79% 0in /  0mm 343.00 W/m2
12:35 35.1 °F /  1.7 °C 28.9 °F /  -1.7 °C 29.88in /  1011.7hPa West 16mph /  25.7km/h 21mph /  33.8km/h 78% 0in /  0mm 350.00 W/m2
12:40 35.4 °F /  1.9 °C 29.2 °F /  -1.6 °C 29.88in /  1011.7hPa WNW 17mph /  27.4km/h 23mph /  37km/h 78% 0in /  0mm 381.00 W/m2
12:45 35.4 °F /  1.9 °C 29.5 °F /  -1.4 °C 29.88in /  1011.7hPa West 17mph /  27.4km/h 23mph /  37km/h 79% 0in /  0mm 376.00 W/m2
12:50 35.5 °F /  1.9 °C 29.6 °F /  -1.3 °C 29.87in /  1011.4hPa West 19mph /  30.6km/h 22mph /  35.4km/h 79% 0in /  0mm 364.00 W/m2
12:55 35.5 °F /  1.9 °C 29.6 °F /  -1.3 °C 29.87in /  1011.4hPa West 14mph /  22.5km/h 22mph /  35.4km/h 79% 0in /  0mm 348.00 W/m2
13:00 35.6 °F /  2 °C 29.7 °F /  -1.3 °C 29.87in /  1011.4hPa WNW 12mph /  19.3km/h 20mph /  32.2km/h 79% 0in /  0mm 346.00 W/m2
13:05 35.6 °F /  2 °C 29.7 °F /  -1.3 °C 29.87in /  1011.4hPa West 10mph /  16.1km/h 18mph /  29km/h 79% 0.01in /  0.25mm 343.00 W/m2
13:10 35.7 °F /  2.1 °C 29.5 °F /  -1.4 °C 29.87in /  1011.4hPa West 18mph /  29km/h 19mph /  30.6km/h 78% 0.01in /  0.25mm 339.00 W/m2
13:15 36 °F /  2.2 °C 29.8 °F /  -1.2 °C 29.87in /  1011.4hPa West 13mph /  20.9km/h 19mph /  30.6km/h 78% 0.02in /  0.51mm 338.00 W/m2
13:20 36.2 °F /  2.3 °C 29.7 °F /  -1.3 °C 29.87in /  1011.4hPa WNW 14mph /  22.5km/h 21mph /  33.8km/h 77% 0.03in /  0.76mm 336.00 W/m2
13:25 36.3 °F /  2.4 °C 29.8 °F /  -1.2 °C 29.87in /  1011.4hPa West 18mph /  29km/h 21mph /  33.8km/h 77% 0.03in /  0.76mm 334.00 W/m2
13:30 36.4 °F /  2.4 °C 29.9 °F /  -1.2 °C 29.87in /  1011.4hPa West 19mph /  30.6km/h 23mph /  37km/h 77% 0.04in /  1.02mm 330.00 W/m2
13:35 36.6 °F /  2.6 °C 30.1 °F /  -1.1 °C 29.87in /  1011.4hPa West 18mph /  29km/h 23mph /  37km/h 77% 0.05in /  1.27mm 330.00 W/m2
13:40 36.9 °F /  2.7 °C 30.4 °F /  -0.9 °C 29.87in /  1011.4hPa West 15mph /  24.1km/h 24mph /  38.6km/h 77% 0.06in /  1.52mm 329.00 W/m2
13:45 37 °F /  2.8 °C 30.5 °F /  -0.8 °C 29.86in /  1011.1hPa WSW 17mph /  27.4km/h 24mph /  38.6km/h 77% 0.07in /  1.78mm 327.00 W/m2
13:50 37.3 °F /  2.9 °C 30.4 °F /  -0.9 °C 29.87in /  1011.4hPa West 15mph /  24.1km/h 27mph /  43.5km/h 76% 0.08in /  2.03mm 325.00 W/m2
13:55 37.3 °F /  2.9 °C 30.4 °F /  -0.9 °C 29.87in /  1011.4hPa West 15mph /  24.1km/h 27mph /  43.5km/h 76% 0.09in /  2.29mm 320.00 W/m2
14:00 37.4 °F /  3 °C 30.5 °F /  -0.8 °C 29.87in /  1011.4hPa West 17mph /  27.4km/h 27mph /  43.5km/h 76% 0.1in /  2.54mm 313.00 W/m2
14:05 37.5 °F /  3.1 °C 30.9 °F /  -0.6 °C 29.87in /  1011.4hPa West 18mph /  29km/h 27mph /  43.5km/h 77% 0.09in /  2.29mm 308.00 W/m2
14:10 37.5 °F /  3.1 °C 30.9 °F /  -0.6 °C 29.87in /  1011.4hPa West 13mph /  20.9km/h 23mph /  37km/h 77% 0.09in /  2.29mm 302.00 W/m2
14:15 37.6 °F /  3.1 °C 30.7 °F /  -0.7 °C 29.87in /  1011.4hPa West 21mph /  33.8km/h 23mph /  37km/h 76% 0.1in /  2.54mm 294.00 W/m2
14:20 37.9 °F /  3.3 °C 30.7 °F /  -0.7 °C 29.87in /  1011.4hPa West 15mph /  24.1km/h 23mph /  37km/h 75% 0.1in /  2.54mm 285.00 W/m2
14:25 38.1 °F /  3.4 °C 30.9 °F /  -0.6 °C 29.87in /  1011.4hPa West 20mph /  32.2km/h 28mph /  45.1km/h 75% 0.09in /  2.29mm 278.00 W/m2
14:30 38.3 °F /  3.5 °C 30.7 °F /  -0.7 °C 29.87in /  1011.4hPa West 24mph /  38.6km/h 28mph /  45.1km/h 74% 0.09in /  2.29mm 269.00 W/m2
14:35 38.5 °F /  3.6 °C 30.9 °F /  -0.6 °C 29.87in /  1011.4hPa WNW 16mph /  25.7km/h 28mph /  45.1km/h 74% 0.09in /  2.29mm 258.00 W/m2
14:40 38.7 °F /  3.7 °C 30.8 °F /  -0.7 °C 29.88in /  1011.7hPa West 16mph /  25.7km/h 28mph /  45.1km/h 73% 0.08in /  2.03mm 248.00 W/m2
14:45 38.6 °F /  3.7 °C 31 °F /  -0.6 °C 29.88in /  1011.7hPa West 18mph /  29km/h 23mph /  37km/h 74% 0.08in /  2.03mm 237.00 W/m2
14:50 38.7 °F /  3.7 °C 31.1 °F /  -0.5 °C 29.87in /  1011.4hPa West 17mph /  27.4km/h 23mph /  37km/h 74% 0.08in /  2.03mm 227.00 W/m2
14:55 38.6 °F /  3.7 °C 31 °F /  -0.6 °C 29.88in /  1011.7hPa WNW 14mph /  22.5km/h 23mph /  37km/h 74% 0.08in /  2.03mm 216.00 W/m2
15:00 38.6 °F /  3.7 °C 31 °F /  -0.6 °C 29.88in /  1011.7hPa West 19mph /  30.6km/h 20mph /  32.2km/h 74% 0.07in /  1.78mm 202.00 W/m2
15:05 38.4 °F /  3.6 °C 31.2 °F /  -0.4 °C 29.88in /  1011.7hPa West 17mph /  27.4km/h 20mph /  32.2km/h 75% 0.08in /  2.03mm 188.00 W/m2
15:10 38.5 °F /  3.6 °C 31.3 °F /  -0.4 °C 29.88in /  1011.7hPa West 19mph /  30.6km/h 21mph /  33.8km/h 75% 0.08in /  2.03mm 174.00 W/m2
15:15 38.6 °F /  3.7 °C 31.4 °F /  -0.3 °C 29.88in /  1011.7hPa West 16mph /  25.7km/h 21mph /  33.8km/h 75% 0.08in /  2.03mm 163.00 W/m2
15:20 38.5 °F /  3.6 °C 31.3 °F /  -0.4 °C 29.88in /  1011.7hPa WNW 15mph /  24.1km/h 21mph /  33.8km/h 75% 0.07in /  1.78mm 151.00 W/m2
15:25 38.6 °F /  3.7 °C 31.4 °F /  -0.3 °C 29.88in /  1011.7hPa West 14mph /  22.5km/h 21mph /  33.8km/h 75% 0.07in /  1.78mm 139.00 W/m2
15:30 38.4 °F /  3.6 °C 31.2 °F /  -0.4 °C 29.88in /  1011.7hPa West 13mph /  20.9km/h 19mph /  30.6km/h 75% 0.08in /  2.03mm 127.00 W/m2
15:35 38.3 °F /  3.5 °C 31.1 °F /  -0.5 °C 29.88in /  1011.7hPa WNW 13mph /  20.9km/h 19mph /  30.6km/h 75% 0.08in /  2.03mm 113.00 W/m2
15:40 38.3 °F /  3.5 °C 31.1 °F /  -0.5 °C 29.88in /  1011.7hPa West 14mph /  22.5km/h 19mph /  30.6km/h 75% 0.08in /  2.03mm 104.00 W/m2
15:45 38.3 °F /  3.5 °C 31.1 °F /  -0.5 °C 29.88in /  1011.7hPa West 15mph /  24.1km/h 19mph /  30.6km/h 75% 0.08in /  2.03mm 91.00 W/m2
15:50 38.4 °F /  3.6 °C 30.8 °F /  -0.7 °C 29.88in /  1011.7hPa West 14mph /  22.5km/h 17mph /  27.4km/h 74% 0.07in /  1.78mm 83.00 W/m2
15:55 38.4 °F /  3.6 °C 30.8 °F /  -0.7 °C 29.88in /  1011.7hPa West 12mph /  19.3km/h 17mph /  27.4km/h 74% 0.06in /  1.52mm 69.00 W/m2
16:00 38.5 °F /  3.6 °C 30.9 °F /  -0.6 °C 29.88in /  1011.7hPa West 14mph /  22.5km/h 23mph /  37km/h 74% 0.06in /  1.52mm 62.00 W/m2
16:05 38.3 °F /  3.5 °C 30.7 °F /  -0.7 °C 29.88in /  1011.7hPa WSW 12mph /  19.3km/h 23mph /  37km/h 74% 0.06in /  1.52mm 49.00 W/m2
16:10 38.1 °F /  3.4 °C 30.5 °F /  -0.8 °C 29.89in /  1012.1hPa West 13mph /  20.9km/h 22mph /  35.4km/h 74% 0.05in /  1.27mm 33.00 W/m2
16:15 37.9 °F /  3.3 °C 30.7 °F /  -0.7 °C 29.88in /  1011.7hPa West 16mph /  25.7km/h 22mph /  35.4km/h 75% 0.04in /  1.02mm 21.00 W/m2
16:20 37.9 °F /  3.3 °C 30.7 °F /  -0.7 °C 29.89in /  1012.1hPa West 14mph /  22.5km/h 19mph /  30.6km/h 75% 0.04in /  1.02mm 18.00 W/m2
16:25 37.6 °F /  3.1 °C 30.4 °F /  -0.9 °C 29.89in /  1012.1hPa West 14mph /  22.5km/h 19mph /  30.6km/h 75% 0.04in /  1.02mm 16.00 W/m2
16:30 37.4 °F /  3 °C 30.2 °F /  -1 °C 29.89in /  1012.1hPa West 11mph /  17.7km/h 19mph /  30.6km/h 75% 0.03in /  0.76mm 14.00 W/m2
16:35 37.4 °F /  3 °C 30.2 °F /  -1 °C 29.89in /  1012.1hPa West 13mph /  20.9km/h 20mph /  32.2km/h 75% 0.02in /  0.51mm 12.00 W/m2
16:40 37.5 °F /  3.1 °C 30.3 °F /  -0.9 °C 29.89in /  1012.1hPa West 14mph /  22.5km/h 20mph /  32.2km/h 75% 0.02in /  0.51mm 11.00 W/m2
16:45 37 °F /  2.8 °C 30.1 °F /  -1.1 °C 29.89in /  1012.1hPa West 13mph /  20.9km/h 20mph /  32.2km/h 76% 0.02in /  0.51mm 9.00 W/m2
16:50 36.8 °F /  2.7 °C 29.9 °F /  -1.2 °C 29.88in /  1011.7hPa West 13mph /  20.9km/h 20mph /  32.2km/h 76% 0.02in /  0.51mm 7.00 W/m2
16:55 36.9 °F /  2.7 °C 30 °F /  -1.1 °C 29.88in /  1011.7hPa West 16mph /  25.7km/h 18mph /  29km/h 76% 0.02in /  0.51mm 5.00 W/m2
17:00 37.2 °F /  2.9 °C 30 °F /  -1.1 °C 29.88in /  1011.7hPa West 15mph /  24.1km/h 19mph /  30.6km/h 75% 0.01in /  0.25mm 5.00 W/m2
17:05 37.3 °F /  2.9 °C 30.1 °F /  -1.1 °C 29.88in /  1011.7hPa West 15mph /  24.1km/h 19mph /  30.6km/h 75% 0.01in /  0.25mm 0.00 W/m2
17:10 37 °F /  2.8 °C 29.8 °F /  -1.2 °C 29.89in /  1012.1hPa West 11mph /  17.7km/h 17mph /  27.4km/h 75% 0.01in /  0.25mm 0.00 W/m2
17:15 36.9 °F /  2.7 °C 30 °F /  -1.1 °C 29.89in /  1012.1hPa West 13mph /  20.9km/h 17mph /  27.4km/h 76% 0.01in /  0.25mm 0.00 W/m2
17:20 36.6 °F /  2.6 °C 29.7 °F /  -1.3 °C 29.89in /  1012.1hPa West 12mph /  19.3km/h 17mph /  27.4km/h 76% 0.01in /  0.25mm 0.00 W/m2
17:25 36.3 °F /  2.4 °C 29.5 °F /  -1.4 °C 29.89in /  1012.1hPa West 11mph /  17.7km/h 17mph /  27.4km/h 76% 0.01in /  0.25mm 0.00 W/m2
17:30 36.2 °F /  2.3 °C 29.4 °F /  -1.4 °C 29.89in /  1012.1hPa West 10mph /  16.1km/h 16mph /  25.7km/h 76% 0.01in /  0.25mm 0.00 W/m2
17:35 36.1 °F /  2.3 °C 29.6 °F /  -1.3 °C 29.89in /  1012.1hPa West 9mph /  14.5km/h 16mph /  25.7km/h 77% 0.01in /  0.25mm 0.00 W/m2
17:40 36.2 °F /  2.3 °C 29.7 °F /  -1.3 °C 29.89in /  1012.1hPa West 11mph /  17.7km/h 16mph /  25.7km/h 77% 0.01in /  0.25mm 0.00 W/m2
17:45 35.9 °F /  2.2 °C 29.4 °F /  -1.4 °C 29.89in /  1012.1hPa West 8mph /  12.9km/h 14mph /  22.5km/h 77% 0in /  0mm 0.00 W/m2
17:50 35.8 °F /  2.1 °C 29.3 °F /  -1.5 °C 29.89in /  1012.1hPa WSW 8mph /  12.9km/h 14mph /  22.5km/h 77% 0in /  0mm 0.00 W/m2
17:55 35.4 °F /  1.9 °C 29.2 °F /  -1.6 °C 29.89in /  1012.1hPa West 10mph /  16.1km/h 14mph /  22.5km/h 78% 0in /  0mm 0.00 W/m2
18:00 35 °F /  1.7 °C 28.8 °F /  -1.8 °C 29.89in /  1012.1hPa West 10mph /  16.1km/h 13mph /  20.9km/h 78% 0in /  0mm 0.00 W/m2
18:05 34.7 °F /  1.5 °C 28.9 °F /  -1.7 °C 29.89in /  1012.1hPa West 8mph /  12.9km/h 13mph /  20.9km/h 79% 0in /  0mm 0.00 W/m2
18:10 34.4 °F /  1.3 °C 28.9 °F /  -1.7 °C 29.89in /  1012.1hPa West 12mph /  19.3km/h 13mph /  20.9km/h 80% 0in /  0mm 0.00 W/m2
18:15 34.6 °F /  1.4 °C 29.1 °F /  -1.6 °C 29.89in /  1012.1hPa West 7mph /  11.3km/h 13mph /  20.9km/h 80% 0in /  0mm 0.00 W/m2
18:20 34.5 °F /  1.4 °C 29 °F /  -1.7 °C 29.89in /  1012.1hPa West 9mph /  14.5km/h 13mph /  20.9km/h 80% 0in /  0mm 0.00 W/m2
18:25 34.4 °F /  1.3 °C 29.2 °F /  -1.6 °C 29.89in /  1012.1hPa West 8mph /  12.9km/h 13mph /  20.9km/h 81% 0in /  0mm 0.00 W/m2
18:30 34.6 °F /  1.4 °C 29.4 °F /  -1.4 °C 29.89in /  1012.1hPa West 9mph /  14.5km/h 13mph /  20.9km/h 81% 0in /  0mm 0.00 W/m2
18:35 34.8 °F /  1.6 °C 29.6 °F /  -1.3 °C 29.89in /  1012.1hPa West 8mph /  12.9km/h 12mph /  19.3km/h 81% 0in /  0mm 0.00 W/m2
18:40 35.2 °F /  1.8 °C 29.6 °F /  -1.3 °C 29.89in /  1012.1hPa West 8mph /  12.9km/h 13mph /  20.9km/h 80% 0in /  0mm 0.00 W/m2
18:45 35.2 °F /  1.8 °C 29.6 °F /  -1.3 °C 29.89in /  1012.1hPa West 10mph /  16.1km/h 13mph /  20.9km/h 80% 0in /  0mm 0.00 W/m2
18:50 35.2 °F /  1.8 °C 29.6 °F /  -1.3 °C 29.89in /  1012.1hPa West 9mph /  14.5km/h 12mph /  19.3km/h 80% 0in /  0mm 0.00 W/m2
18:55 35.3 °F /  1.8 °C 29.7 °F /  -1.3 °C 29.89in /  1012.1hPa West 10mph /  16.1km/h 12mph /  19.3km/h 80% 0in /  0mm 0.00 W/m2
19:00 35.4 °F /  1.9 °C 29.8 °F /  -1.2 °C 29.89in /  1012.1hPa West 9mph /  14.5km/h 12mph /  19.3km/h 80% 0in /  0mm 0.00 W/m2
19:05 35.4 °F /  1.9 °C 29.8 °F /  -1.2 °C 29.89in /  1012.1hPa WSW 10mph /  16.1km/h 13mph /  20.9km/h 80% 0in /  0mm 0.00 W/m2
19:10 35.4 °F /  1.9 °C 29.5 °F /  -1.4 °C 29.89in /  1012.1hPa WSW 12mph /  19.3km/h 15mph /  24.1km/h 79% 0in /  0mm 0.00 W/m2
19:15 35.5 °F /  1.9 °C 29.6 °F /  -1.3 °C 29.89in /  1012.1hPa WSW 9mph /  14.5km/h 15mph /  24.1km/h 79% 0in /  0mm 0.00 W/m2
19:20 35.3 °F /  1.8 °C 29.4 °F /  -1.4 °C 29.89in /  1012.1hPa WNW 6mph /  9.7km/h 15mph /  24.1km/h 79% 0in /  0mm 0.00 W/m2
19:25 35.1 °F /  1.7 °C 29.2 °F /  -1.6 °C 29.89in /  1012.1hPa WNW 4mph /  6.4km/h 15mph /  24.1km/h 79% 0in /  0mm 0.00 W/m2
19:30 35.1 °F /  1.7 °C 29.2 °F /  -1.6 °C 29.90in /  1012.4hPa WNW 8mph /  12.9km/h 10mph /  16.1km/h 79% 0in /  0mm 0.00 W/m2
19:35 34.9 °F /  1.6 °C 29 °F /  -1.7 °C 29.90in /  1012.4hPa WNW 7mph /  11.3km/h 10mph /  16.1km/h 79% 0in /  0mm 0.00 W/m2
19:40 34.7 °F /  1.5 °C 29.2 °F /  -1.6 °C 29.89in /  1012.1hPa West 8mph /  12.9km/h 11mph /  17.7km/h 80% 0in /  0mm 0.00 W/m2
19:45 34.3 °F /  1.3 °C 28.8 °F /  -1.8 °C 29.89in /  1012.1hPa West 8mph /  12.9km/h 11mph /  17.7km/h 80% 0in /  0mm 0.00 W/m2
19:50 34.1 °F /  1.2 °C 28.9 °F /  -1.7 °C 29.89in /  1012.1hPa West 8mph /  12.9km/h 11mph /  17.7km/h 81% 0in /  0mm 0.00 W/m2
19:55 34.1 °F /  1.2 °C 28.6 °F /  -1.9 °C 29.90in /  1012.4hPa West 9mph /  14.5km/h 12mph /  19.3km/h 80% 0in /  0mm 0.00 W/m2
20:00 34 °F /  1.1 °C 28.8 °F /  -1.8 °C 29.90in /  1012.4hPa WSW 10mph /  16.1km/h 13mph /  20.9km/h 81% 0in /  0mm 0.00 W/m2
20:05 33.9 °F /  1.1 °C 28.7 °F /  -1.8 °C 29.90in /  1012.4hPa WSW 10mph /  16.1km/h 13mph /  20.9km/h 81% 0in /  0mm 0.00 W/m2
20:10 33.8 °F /  1 °C 28.6 °F /  -1.9 °C 29.90in /  1012.4hPa WSW 7mph /  11.3km/h 13mph /  20.9km/h 81% 0in /  0mm 0.00 W/m2
20:15 33.5 °F /  0.8 °C 28.3 °F /  -2.1 °C 29.90in /  1012.4hPa WSW 3mph /  4.8km/h 13mph /  20.9km/h 81% 0in /  0mm 0.00 W/m2
20:20 33 °F /  0.6 °C 27.8 °F /  -2.3 °C 29.90in /  1012.4hPa WSW 8mph /  12.9km/h 10mph /  16.1km/h 81% 0in /  0mm 0.00 W/m2
20:25 33 °F /  0.6 °C 28.1 °F /  -2.2 °C 29.90in /  1012.4hPa West 6mph /  9.7km/h 9mph /  14.5km/h 82% 0in /  0mm 0.00 W/m2
20:30 33.1 °F /  0.6 °C 28.2 °F /  -2.1 °C 29.90in /  1012.4hPa WNW 8mph /  12.9km/h 13mph /  20.9km/h 82% 0in /  0mm 0.00 W/m2
20:35 33.4 °F /  0.8 °C 28.2 °F /  -2.1 °C 29.90in /  1012.4hPa West 9mph /  14.5km/h 13mph /  20.9km/h 81% 0in /  0mm 0.00 W/m2
20:40 33.4 °F /  0.8 °C 28.2 °F /  -2.1 °C 29.90in /  1012.4hPa West 7mph /  11.3km/h 13mph /  20.9km/h 81% 0in /  0mm 0.00 W/m2
20:45 33.2 °F /  0.7 °C 28 °F /  -2.2 °C 29.90in /  1012.4hPa West 7mph /  11.3km/h 11mph /  17.7km/h 81% 0in /  0mm 0.00 W/m2
20:50 33.1 °F /  0.6 °C 27.9 °F /  -2.3 °C 29.90in /  1012.4hPa West 6mph /  9.7km/h 11mph /  17.7km/h 81% 0in /  0mm 0.00 W/m2
20:55 32.8 °F /  0.4 °C 27.6 °F /  -2.4 °C 29.90in /  1012.4hPa WSW 4mph /  6.4km/h 9mph /  14.5km/h 81% 0in /  0mm 0.00 W/m2
21:00 32.5 °F /  0.3 °C 27.6 °F /  -2.4 °C 29.90in /  1012.4hPa WSW 3mph /  4.8km/h 9mph /  14.5km/h 82% 0in /  0mm 0.00 W/m2
21:05 32.2 °F /  0.1 °C 27.3 °F /  -2.6 °C 29.90in /  1012.4hPa SW 4mph /  6.4km/h 9mph /  14.5km/h 82% 0in /  0mm 0.00 W/m2
21:10 32 °F /  0 °C 27.1 °F /  -2.7 °C 29.90in /  1012.4hPa SSW 1mph /  1.6km/h 5mph /  8km/h 82% 0in /  0mm 0.00 W/m2
21:15 31.7 °F /  -0.2 °C 27.1 °F /  -2.7 °C 29.90in /  1012.4hPa South 1mph /  1.6km/h 5mph /  8km/h 83% 0in /  0mm 0.00 W/m2
21:20 31.5 °F /  -0.3 °C 27.2 °F /  -2.7 °C 29.91in /  1012.8hPa ESE 2mph /  3.2km/h 3mph /  4.8km/h 84% 0in /  0mm 0.00 W/m2
21:25 31.8 °F /  -0.1 °C 27.5 °F /  -2.5 °C 29.90in /  1012.4hPa ESE 2mph /  3.2km/h 3mph /  4.8km/h 84% 0in /  0mm 0.00 W/m2
21:30 32 °F /  0 °C 27.7 °F /  -2.4 °C 29.90in /  1012.4hPa SE 2mph /  3.2km/h 3mph /  4.8km/h 84% 0in /  0mm 0.00 W/m2
21:35 32.2 °F /  0.1 °C 27.9 °F /  -2.3 °C 29.90in /  1012.4hPa NW 3mph /  4.8km/h 4mph /  6.4km/h 84% 0in /  0mm 0.00 W/m2
21:40 32.5 °F /  0.3 °C 28.2 °F /  -2.1 °C 29.90in /  1012.4hPa West 2mph /  3.2km/h 5mph /  8km/h 84% 0in /  0mm 0.00 W/m2
21:45 32.8 °F /  0.4 °C 28.2 °F /  -2.1 °C 29.90in /  1012.4hPa SW 2mph /  3.2km/h 6mph /  9.7km/h 83% 0in /  0mm 0.00 W/m2
21:50 32.7 °F /  0.4 °C 28.1 °F /  -2.2 °C 29.90in /  1012.4hPa SW 2mph /  3.2km/h 6mph /  9.7km/h 83% 0in /  0mm 0.00 W/m2
21:55 32.6 °F /  0.3 °C 28 °F /  -2.2 °C 29.90in /  1012.4hPa SW 3mph /  4.8km/h 5mph /  8km/h 83% 0in /  0mm 0.00 W/m2
22:00 32.5 °F /  0.3 °C 27.9 °F /  -2.3 °C 29.90in /  1012.4hPa West 8mph /  12.9km/h 9mph /  14.5km/h 83% 0in /  0mm 0.00 W/m2
22:05 33.7 °F /  0.9 °C 28.5 °F /  -1.9 °C 29.90in /  1012.4hPa WSW 11mph /  17.7km/h 14mph /  22.5km/h 81% 0in /  0mm 0.00 W/m2
22:10 33.9 °F /  1.1 °C 28.4 °F /  -2 °C 29.90in /  1012.4hPa West 7mph /  11.3km/h 14mph /  22.5km/h 80% 0in /  0mm 0.00 W/m2
22:15 33.8 °F /  1 °C 28.3 °F /  -2.1 °C 29.90in /  1012.4hPa West 10mph /  16.1km/h 14mph /  22.5km/h 80% 0in /  0mm 0.00 W/m2
22:20 34.4 °F /  1.3 °C 28.9 °F /  -1.7 °C 29.90in /  1012.4hPa West 9mph /  14.5km/h 15mph /  24.1km/h 80% 0in /  0mm 0.00 W/m2
22:25 34.4 °F /  1.3 °C 28.9 °F /  -1.7 °C 29.90in /  1012.4hPa WNW 5mph /  8km/h 15mph /  24.1km/h 80% 0in /  0mm 0.00 W/m2
22:30 34.2 °F /  1.2 °C 28.4 °F /  -2 °C 29.90in /  1012.4hPa West 7mph /  11.3km/h 15mph /  24.1km/h 79% 0in /  0mm 0.00 W/m2
22:35 33.9 °F /  1.1 °C 28.4 °F /  -2 °C 29.91in /  1012.8hPa WNW 4mph /  6.4km/h 15mph /  24.1km/h 80% 0in /  0mm 0.00 W/m2
22:40 33.5 °F /  0.8 °C 28 °F /  -2.2 °C 29.91in /  1012.8hPa NW 4mph /  6.4km/h 11mph /  17.7km/h 80% 0in /  0mm 0.00 W/m2
22:45 33 °F /  0.6 °C 27.5 °F /  -2.5 °C 29.91in /  1012.8hPa NW 8mph /  12.9km/h 11mph /  17.7km/h 80% 0in /  0mm 0.00 W/m2
22:50 32.7 °F /  0.4 °C 27.8 °F /  -2.3 °C 29.91in /  1012.8hPa NW 7mph /  11.3km/h 9mph /  14.5km/h 82% 0in /  0mm 0.00 W/m2
22:55 33.2 °F /  0.7 °C 28.3 °F /  -2.1 °C 29.92in /  1013.1hPa WNW 7mph /  11.3km/h 9mph /  14.5km/h 82% 0in /  0mm 0.00 W/m2
23:00 33.1 °F /  0.6 °C 27.9 °F /  -2.3 °C 29.92in /  1013.1hPa WNW 4mph /  6.4km/h 11mph /  17.7km/h 81% 0in /  0mm 0.00 W/m2
23:05 32.7 °F /  0.4 °C 27.5 °F /  -2.5 °C 29.92in /  1013.1hPa WNW 5mph /  8km/h 11mph /  17.7km/h 81% 0in /  0mm 0.00 W/m2
23:10 32.5 °F /  0.3 °C 27.6 °F /  -2.4 °C 29.93in /  1013.4hPa WNW 5mph /  8km/h 11mph /  17.7km/h 82% 0in /  0mm 0.00 W/m2
23:15 32.5 °F /  0.3 °C 27.6 °F /  -2.4 °C 29.93in /  1013.4hPa WNW 3mph /  4.8km/h 11mph /  17.7km/h 82% 0in /  0mm 0.00 W/m2
23:20 32.4 °F /  0.2 °C 27.8 °F /  -2.3 °C 29.92in /  1013.1hPa WNW 7mph /  11.3km/h 7mph /  11.3km/h 83% 0in /  0mm 0.00 W/m2
23:25 32.8 °F /  0.4 °C 27.9 °F /  -2.3 °C 29.93in /  1013.4hPa WNW 3mph /  4.8km/h 8mph /  12.9km/h 82% 0in /  0mm 0.00 W/m2
23:30 32.6 °F /  0.3 °C 27.7 °F /  -2.4 °C 29.92in /  1013.1hPa WSW 5mph /  8km/h 8mph /  12.9km/h 82% 0in /  0mm 0.00 W/m2
23:35 32.1 °F /  0.1 °C 27.2 °F /  -2.7 °C 29.93in /  1013.4hPa WSW 6mph /  9.7km/h 9mph /  14.5km/h 82% 0in /  0mm 0.00 W/m2
23:40 32 °F /  0 °C 27.1 °F /  -2.7 °C 29.93in /  1013.4hPa West 10mph /  16.1km/h 13mph /  20.9km/h 82% 0in /  0mm 0.00 W/m2
23:45 31.9 °F /  -0.1 °C 27 °F /  -2.8 °C 29.93in /  1013.4hPa West 8mph /  12.9km/h 15mph /  24.1km/h 82% 0in /  0mm 0.00 W/m2
23:50 31.9 °F /  -0.1 °C 27.3 °F /  -2.6 °C 29.92in /  1013.1hPa WNW 6mph /  9.7km/h 15mph /  24.1km/h 83% 0in /  0mm 0.00 W/m2
23:55 32.3 °F /  0.2 °C 27.7 °F /  -2.4 °C 29.92in /  1013.1hPa WNW 7mph /  11.3km/h 12mph /  19.3km/h 83% 0in /  0mm 0.00 W/m2
Bismarck, North Dakota, USA
Compliments of Weather Underground - 4 mb